Time;durP1;ratioP1;P1;durP2;ratioP2;P2;SDS_P1;SDS_P2;PMS_P1;PMS_P2;Temp;Humidity;BMP_temperature;BMP_pressure;BME280_temperature;BME280_humidity;BME280_pressure;Samples;Min_cycle;Max_cycle;Signal;HPM_P1;HPM_P2
2021/03/29 00:01:47;;;;;;;6.63;3.10;;;;;;;;;;5056132;28;20417;-72
2021/03/29 00:04:13;;;;;;;3.40;2.47;;;;;;;;;;5056006;28;20418;-72
2021/03/29 00:06:40;;;;;;;3.60;2.60;;;;;;;;;;5055014;28;20410;-72
2021/03/29 00:09:06;;;;;;;3.13;2.30;;;;;;;;;;5056204;28;20416;-72
2021/03/29 00:11:34;;;;;;;4.40;2.37;;;;;;;;;;5055205;28;20455;-72
2021/03/29 00:14:00;;;;;;;3.77;2.93;;;;;;;;;;5054868;28;20494;-74
2021/03/29 00:16:27;;;;;;;9.77;3.40;;;;;;;;;;5036617;28;20558;-74
2021/03/29 00:18:53;;;;;;;6.07;2.90;;;;;;;;;;5035773;28;20405;-74
2021/03/29 00:21:20;;;;;;;4.47;2.50;;;;;;;;;;5051533;28;20855;-74
2021/03/29 00:23:46;;;;;;;6.70;3.83;;;;;;;;;;5055450;28;20455;-74
2021/03/29 00:26:13;;;;;;;4.03;2.63;;;;;;;;;;5054766;28;20764;-73
2021/03/29 00:28:39;;;;;;;3.60;2.13;;;;;;;;;;5053774;28;20425;-74
2021/03/29 00:31:06;;;;;;;5.63;2.80;;;;;;;;;;5037783;28;20433;-74
2021/03/29 00:33:32;;;;;;;5.67;2.90;;;;;;;;;;5035433;28;20484;-73
2021/03/29 00:35:59;;;;;;;3.47;2.63;;;;;;;;;;5044871;28;20465;-72
2021/03/29 00:38:25;;;;;;;3.90;2.10;;;;;;;;;;5055421;28;20434;-73
2021/03/29 00:40:53;;;;;;;5.10;2.77;;;;;;;;;;5054484;28;20431;-73
2021/03/29 00:43:24;;;;;;;5.40;2.70;;;;;;;;;;5055267;28;20404;-73
2021/03/29 00:45:51;;;;;;;3.90;2.07;;;;;;;;;;5054480;28;20539;-73
2021/03/29 00:48:18;;;;;;;3.00;2.20;;;;;;;;;;5055478;28;20504;-73
2021/03/29 00:50:46;;;;;;;3.77;2.03;;;;;;;;;;5054179;28;20518;-73
2021/03/29 00:53:13;;;;;;;4.80;2.63;;;;;;;;;;5055246;28;20414;-73
2021/03/29 00:55:41;;;;;;;3.53;2.23;;;;;;;;;;5053937;28;20834;-73
2021/03/29 00:58:08;;;;;;;2.73;1.90;;;;;;;;;;5055186;28;20405;-73
2021/03/29 01:00:40;;;;;;;5.00;2.57;;;;;;;;;;5053369;28;20485;-73
2021/03/29 01:03:16;;;;;;;3.07;2.20;;;;;;;;;;5055311;28;20388;-73
2021/03/29 01:05:43;;;;;;;3.83;2.57;;;;;;;;;;5052596;28;20550;-72
2021/03/29 01:08:09;;;;;;;4.10;2.77;;;;;;;;;;5054078;28;20439;-72
2021/03/29 01:10:36;;;;;;;5.13;2.73;;;;;;;;;;5053762;28;20523;-73
2021/03/29 01:13:05;;;;;;;3.97;2.23;;;;;;;;;;5054692;28;20428;-72
2021/03/29 01:15:31;;;;;;;4.53;2.30;;;;;;;;;;5053872;28;20474;-73
2021/03/29 01:17:58;;;;;;;3.03;2.20;;;;;;;;;;5054682;28;20401;-72
2021/03/29 01:20:36;;;;;;;3.70;2.40;;;;;;;;;;5053714;28;20425;-73
2021/03/29 01:23:02;;;;;;;3.97;2.53;;;;;;;;;;5053215;28;20419;-72
2021/03/29 01:25:34;;;;;;;4.20;2.30;;;;;;;;;;5053483;28;20483;-73
2021/03/29 01:28:06;;;;;;;4.77;2.30;;;;;;;;;;5054511;28;20819;-72
2021/03/29 01:30:34;;;;;;;8.13;2.80;;;;;;;;;;5053429;28;20822;-73
2021/03/29 01:33:01;;;;;;;4.17;2.90;;;;;;;;;;5054359;28;20466;-72
2021/03/29 01:35:27;;;;;;;6.70;4.07;;;;;;;;;;5054224;28;20453;-72
2021/03/29 01:37:53;;;;;;;15.80;6.10;;;;;;;;;;5053017;28;20418;-72
2021/03/29 01:40:21;;;;;;;8.07;3.80;;;;;;;;;;5053919;28;20465;-73
2021/03/29 01:42:48;;;;;;;5.00;3.33;;;;;;;;;;5053444;28;20424;-73
2021/03/29 01:45:14;;;;;;;6.20;3.00;;;;;;;;;;5054118;28;20433;-73
2021/03/29 01:47:41;;;;;;;8.23;3.30;;;;;;;;;;5053201;28;20434;-73
2021/03/29 01:50:08;;;;;;;5.57;3.20;;;;;;;;;;5054045;28;20538;-73
2021/03/29 01:52:34;;;;;;;6.63;2.90;;;;;;;;;;5053264;28;20424;-72
2021/03/29 01:55:01;;;;;;;10.47;3.63;;;;;;;;;;5052812;28;20800;-73
2021/03/29 01:57:27;;;;;;;4.10;3.20;;;;;;;;;;5051720;28;20506;-73
2021/03/29 01:59:53;;;;;;;4.30;3.13;;;;;;;;;;5054048;28;20743;-73
2021/03/29 02:02:20;;;;;;;5.07;3.50;;;;;;;;;;5050572;28;20481;-73
2021/03/29 02:04:46;;;;;;;3.90;2.97;;;;;;;;;;5053758;28;20433;-73
2021/03/29 02:07:13;;;;;;;7.83;3.27;;;;;;;;;;5052654;28;20433;-73
2021/03/29 02:09:40;;;;;;;6.03;3.70;;;;;;;;;;5053685;28;20462;-73
2021/03/29 02:12:09;;;;;;;4.97;2.90;;;;;;;;;;5052661;28;20449;-73
2021/03/29 02:14:36;;;;;;;5.83;3.13;;;;;;;;;;5052411;28;20485;-73
2021/03/29 02:17:02;;;;;;;5.40;2.97;;;;;;;;;;5052394;28;20494;-73
2021/03/29 02:19:29;;;;;;;7.37;3.13;;;;;;;;;;5052192;28;20445;-73
2021/03/29 02:21:55;;;;;;;6.80;3.30;;;;;;;;;;5045000;28;20792;-73
2021/03/29 02:24:22;;;;;;;5.93;3.40;;;;;;;;;;5033449;28;20496;-74
2021/03/29 02:26:48;;;;;;;4.33;3.10;;;;;;;;;;5038864;28;20427;-74
2021/03/29 02:29:18;;;;;;;4.33;3.00;;;;;;;;;;5052081;28;20556;-74
2021/03/29 02:31:44;;;;;;;8.10;4.50;;;;;;;;;;5052406;28;20423;-74
2021/03/29 02:34:10;;;;;;;4.63;2.63;;;;;;;;;;5052331;28;20488;-74
2021/03/29 02:36:36;;;;;;;5.57;3.50;;;;;;;;;;5052622;28;20461;-74
2021/03/29 02:39:03;;;;;;;4.03;3.13;;;;;;;;;;5053369;28;20829;-74
2021/03/29 02:41:31;;;;;;;5.50;3.47;;;;;;;;;;5050865;28;20448;-74
2021/03/29 02:43:58;;;;;;;4.87;2.90;;;;;;;;;;5053257;28;20435;-74
2021/03/29 02:46:25;;;;;;;5.70;2.73;;;;;;;;;;5052461;28;20493;-74
2021/03/29 02:48:52;;;;;;;5.63;2.73;;;;;;;;;;5053147;28;20408;-74
2021/03/29 02:51:18;;;;;;;7.80;3.37;;;;;;;;;;5052251;28;20404;-74
2021/03/29 02:53:46;;;;;;;8.20;3.70;;;;;;;;;;5052120;28;20422;-74
2021/03/29 02:56:23;;;;;;;4.93;2.87;;;;;;;;;;5052653;28;20485;-74
2021/03/29 02:58:51;;;;;;;7.33;3.50;;;;;;;;;;5050926;28;20460;-74
2021/03/29 03:01:17;;;;;;;14.70;3.77;;;;;;;;;;5052219;28;20399;-74
2021/03/29 03:03:45;;;;;;;6.13;2.90;;;;;;;;;;5052749;28;20485;-74
2021/03/29 03:06:12;;;;;;;4.50;3.10;;;;;;;;;;5052947;28;20408;-74
2021/03/29 03:08:38;;;;;;;8.37;2.93;;;;;;;;;;5052023;28;20511;-74
2021/03/29 03:11:08;;;;;;;4.17;2.83;;;;;;;;;;5052806;28;20418;-74
2021/03/29 03:13:35;;;;;;;7.30;3.20;;;;;;;;;;5051804;28;20787;-74
2021/03/29 03:16:02;;;;;;;5.17;3.00;;;;;;;;;;5052942;28;20524;-74
2021/03/29 03:18:28;;;;;;;4.13;2.80;;;;;;;;;;5051892;28;20424;-74
2021/03/29 03:20:54;;;;;;;4.17;3.20;;;;;;;;;;5050916;28;20524;-74
2021/03/29 03:23:20;;;;;;;4.73;3.07;;;;;;;;;;5051544;28;20425;-74
2021/03/29 03:25:48;;;;;;;6.07;3.43;;;;;;;;;;5051786;28;20438;-74
2021/03/29 03:28:15;;;;;;;4.80;3.03;;;;;;;;;;5051795;28;20444;-73
2021/03/29 03:30:42;;;;;;;5.63;3.97;;;;;;;;;;5052630;28;20464;-74
2021/03/29 03:33:10;;;;;;;5.23;3.00;;;;;;;;;;5051795;28;20462;-73
2021/03/29 03:35:37;;;;;;;8.70;3.63;;;;;;;;;;5052373;28;20463;-73
2021/03/29 03:38:07;;;;;;;3.83;2.23;;;;;;;;;;5051456;28;20420;-73
2021/03/29 03:40:34;;;;;;;4.27;2.77;;;;;;;;;;5051857;28;20768;-73
2021/03/29 03:43:01;;;;;;;4.20;2.63;;;;;;;;;;5051344;28;20516;-73
2021/03/29 03:45:30;;;;;;;6.17;3.27;;;;;;;;;;5052407;28;20482;-74
2021/03/29 03:47:57;;;;;;;4.67;3.23;;;;;;;;;;5051383;28;20427;-74
2021/03/29 03:50:25;;;;;;;4.77;2.87;;;;;;;;;;5052390;28;20408;-74
2021/03/29 03:52:51;;;;;;;7.03;3.50;;;;;;;;;;5051374;28;20435;-74
2021/03/29 03:55:18;;;;;;;4.33;3.20;;;;;;;;;;5052305;28;20482;-74
2021/03/29 03:57:45;;;;;;;7.37;3.23;;;;;;;;;;5051360;28;20468;-74
2021/03/29 04:00:15;;;;;;;4.17;2.80;;;;;;;;;;5052239;28;20812;-73
2021/03/29 04:02:41;;;;;;;5.07;2.67;;;;;;;;;;5041458;28;20432;-73
2021/03/29 04:05:12;;;;;;;4.23;2.43;;;;;;;;;;5035246;28;20424;-74
2021/03/29 04:07:38;;;;;;;5.70;2.50;;;;;;;;;;5044362;28;20445;-74
2021/03/29 04:10:15;;;;;;;5.63;3.27;;;;;;;;;;5055977;28;20434;-74
2021/03/29 04:12:44;;;;;;;5.43;3.30;;;;;;;;;;5055094;28;20526;-74
2021/03/29 04:15:10;;;;;;;6.27;3.30;;;;;;;;;;5054704;28;21018;-73
2021/03/29 04:17:37;;;;;;;8.33;3.47;;;;;;;;;;5054862;28;20437;-73
2021/03/29 04:20:04;;;;;;;7.33;3.50;;;;;;;;;;5055979;28;20484;-73
2021/03/29 04:22:31;;;;;;;5.77;3.40;;;;;;;;;;5055095;28;20427;-73
2021/03/29 04:24:57;;;;;;;4.87;3.07;;;;;;;;;;5054776;28;20810;-73
2021/03/29 04:27:23;;;;;;;5.90;3.07;;;;;;;;;;5049081;28;20428;-72
2021/03/29 04:29:49;;;;;;;5.53;2.77;;;;;;;;;;5034564;28;20406;-72
2021/03/29 04:32:15;;;;;;;6.10;3.10;;;;;;;;;;5037815;28;20431;-72
2021/03/29 04:34:41;;;;;;;7.03;3.03;;;;;;;;;;5054513;28;20821;-72
2021/03/29 04:37:07;;;;;;;4.50;2.87;;;;;;;;;;5053426;28;20428;-72
2021/03/29 04:39:33;;;;;;;5.23;2.40;;;;;;;;;;5054526;28;20482;-73
2021/03/29 04:41:59;;;;;;;6.20;2.83;;;;;;;;;;5053138;28;20412;-73
2021/03/29 04:44:25;;;;;;;5.63;3.07;;;;;;;;;;5052872;28;20429;-73
2021/03/29 04:46:51;;;;;;;5.63;3.47;;;;;;;;;;5052195;28;20434;-73
2021/03/29 04:49:17;;;;;;;4.10;2.57;;;;;;;;;;5054068;28;20512;-74
2021/03/29 04:51:43;;;;;;;6.90;3.07;;;;;;;;;;5054158;28;20415;-75
2021/03/29 04:54:09;;;;;;;5.00;2.80;;;;;;;;;;5053044;28;20452;-74
2021/03/29 04:56:35;;;;;;;6.53;3.13;;;;;;;;;;5054088;28;20454;-74
2021/03/29 04:59:01;;;;;;;7.20;2.93;;;;;;;;;;5053061;28;20438;-74
2021/03/29 05:01:28;;;;;;;5.33;2.90;;;;;;;;;;5053972;28;20398;-74
2021/03/29 05:03:54;;;;;;;5.50;3.33;;;;;;;;;;5052839;28;20445;-74
2021/03/29 05:06:20;;;;;;;7.33;2.93;;;;;;;;;;5053898;28;20447;-73
2021/03/29 05:08:46;;;;;;;4.33;3.00;;;;;;;;;;5052948;28;20428;-74
2021/03/29 05:11:12;;;;;;;4.57;3.33;;;;;;;;;;5053738;28;20970;-74
2021/03/29 05:13:38;;;;;;;6.93;3.53;;;;;;;;;;5048214;28;20437;-74
2021/03/29 05:16:04;;;;;;;8.80;3.20;;;;;;;;;;5033076;28;20850;-74
2021/03/29 05:18:30;;;;;;;8.23;3.17;;;;;;;;;;5045954;28;20437;-75
2021/03/29 05:20:56;;;;;;;7.47;3.50;;;;;;;;;;5052945;28;20504;-75
2021/03/29 05:23:23;;;;;;;6.40;2.33;;;;;;;;;;5028816;28;669934;-76
2021/03/29 05:25:49;;;;;;;6.43;2.83;;;;;;;;;;5054676;28;20407;-74
2021/03/29 05:28:15;;;;;;;7.47;3.57;;;;;;;;;;5053620;28;20423;-74
2021/03/29 05:30:42;;;;;;;5.17;3.27;;;;;;;;;;5054712;28;20481;-74
2021/03/29 05:33:08;;;;;;;7.60;2.97;;;;;;;;;;5053364;28;20480;-73
2021/03/29 05:35:34;;;;;;;5.20;3.33;;;;;;;;;;5054493;28;20974;-74
2021/03/29 05:38:01;;;;;;;6.63;3.73;;;;;;;;;;5052637;28;20419;-74
2021/03/29 05:40:27;;;;;;;11.43;4.20;;;;;;;;;;5054258;28;20443;-74
2021/03/29 05:42:53;;;;;;;11.93;3.53;;;;;;;;;;5052029;28;20487;-74
2021/03/29 05:45:19;;;;;;;8.73;4.10;;;;;;;;;;5052848;28;20427;-74
2021/03/29 05:47:46;;;;;;;10.80;3.03;;;;;;;;;;5051934;28;20423;-73
2021/03/29 05:50:13;;;;;;;7.90;3.50;;;;;;;;;;5054399;28;20733;-74
2021/03/29 05:52:40;;;;;;;7.40;4.00;;;;;;;;;;5051152;28;20575;-73
2021/03/29 05:55:11;;;;;;;5.30;3.17;;;;;;;;;;5052719;28;20466;-74
2021/03/29 05:57:54;;;;;;;4.93;2.80;;;;;;;;;;5052921;28;20595;-75
2021/03/29 06:00:40;;;;;;;4.80;2.97;;;;;;;;;;5054196;28;20387;-74
2021/03/29 06:03:25;;;;;;;3.50;2.90;;;;;;;;;;5052873;28;20489;-73
2021/03/29 06:05:53;;;;;;;7.73;3.70;;;;;;;;;;5053802;28;20406;-74
2021/03/29 06:08:19;;;;;;;6.83;3.50;;;;;;;;;;5053023;28;20427;-73
2021/03/29 06:10:46;;;;;;;6.10;2.80;;;;;;;;;;5053731;28;20406;-73
2021/03/29 06:13:20;;;;;;;5.03;3.03;;;;;;;;;;5053039;28;20730;-74
2021/03/29 06:15:46;;;;;;;9.10;3.60;;;;;;;;;;5054086;28;20439;-73
2021/03/29 06:18:13;;;;;;;10.37;4.07;;;;;;;;;;5052735;28;20428;-73
2021/03/29 06:20:58;;;;;;;9.23;4.30;;;;;;;;;;5053671;28;20812;-73
2021/03/29 06:23:24;;;;;;;10.80;4.10;;;;;;;;;;5052230;28;20580;-74
2021/03/29 06:25:50;;;;;;;8.07;3.77;;;;;;;;;;5052580;28;20471;-72
2021/03/29 06:28:34;;;;;;;8.40;3.73;;;;;;;;;;5048523;28;20457;-74
2021/03/29 06:31:16;;;;;;;4.47;2.90;;;;;;;;;;5051050;28;20428;-72
2021/03/29 06:33:47;;;;;;;7.50;3.30;;;;;;;;;;5051815;28;20807;-75
2021/03/29 06:36:23;;;;;;;11.73;3.83;;;;;;;;;;5052343;28;20471;-76
2021/03/29 06:38:49;;;;;;;5.90;3.40;;;;;;;;;;5050606;28;20483;-73
2021/03/29 06:41:23;;;;;;;4.87;3.33;;;;;;;;;;5051766;28;20815;-75
2021/03/29 06:43:50;;;;;;;11.07;3.33;;;;;;;;;;5051436;28;20448;-75
2021/03/29 06:46:20;;;;;;;5.97;3.57;;;;;;;;;;5043890;28;20474;-75
2021/03/29 06:48:47;;;;;;;6.10;3.67;;;;;;;;;;5044223;28;20426;-74
2021/03/29 06:51:13;;;;;;;9.70;3.30;;;;;;;;;;5049260;28;20486;-75
2021/03/29 06:53:43;;;;;;;6.77;3.60;;;;;;;;;;5049656;28;20435;-75
2021/03/29 06:56:23;;;;;;;9.13;3.20;;;;;;;;;;5045599;28;21044;-74
2021/03/29 06:58:53;;;;;;;7.20;3.17;;;;;;;;;;5040062;28;20471;-76
2021/03/29 07:01:21;;;;;;;12.40;3.60;;;;;;;;;;5047898;28;21204;-76
2021/03/29 07:03:48;;;;;;;7.10;3.17;;;;;;;;;;5049817;28;20471;-73
2021/03/29 07:06:15;;;;;;;5.33;3.10;;;;;;;;;;5051389;28;20447;-73
2021/03/29 07:08:43;;;;;;;7.43;2.90;;;;;;;;;;5046020;28;20942;-72
2021/03/29 07:11:10;;;;;;;11.63;3.00;;;;;;;;;;5047694;28;20829;-72
2021/03/29 07:13:38;;;;;;;4.27;3.20;;;;;;;;;;5037977;28;20522;-72
2021/03/29 07:16:05;;;;;;;4.80;2.67;;;;;;;;;;5040255;28;20451;-71
2021/03/29 07:18:31;;;;;;;7.40;2.70;;;;;;;;;;5048434;28;20172;-73
2021/03/29 07:20:58;;;;;;;7.80;2.60;;;;;;;;;;5042364;28;20421;-73
2021/03/29 07:23:25;;;;;;;5.60;2.60;;;;;;;;;;5048553;28;20481;-72
2021/03/29 07:25:51;;;;;;;6.77;2.90;;;;;;;;;;5048683;28;20806;-72
2021/03/29 07:28:20;;;;;;;5.67;2.80;;;;;;;;;;5045870;28;20508;-75
2021/03/29 07:30:46;;;;;;;6.00;2.93;;;;;;;;;;5043813;28;20484;-71
2021/03/29 07:33:14;;;;;;;3.77;2.00;;;;;;;;;;5041775;28;20457;-73
2021/03/29 07:35:43;;;;;;;5.75;2.72;;;;;;;;;;5044066;28;20442;-69
2021/03/29 07:38:09;;;;;;;4.53;2.60;;;;;;;;;;5048372;28;20534;-69
2021/03/29 07:40:36;;;;;;;4.13;2.20;;;;;;;;;;5049086;28;20939;-69
2021/03/29 07:43:32;;;;;;;4.13;2.50;;;;;;;;;;5048020;28;20413;-69
2021/03/29 07:46:05;;;;;;;12.23;1.90;;;;;;;;;;5039808;28;20504;-69
2021/03/29 07:48:42;;;;;;;4.50;2.30;;;;;;;;;;5048171;28;20504;-70
2021/03/29 07:51:12;;;;;;;2.93;1.73;;;;;;;;;;5048776;28;20424;-70
2021/03/29 07:53:42;;;;;;;4.00;2.03;;;;;;;;;;5050083;28;20529;-69
2021/03/29 07:56:09;;;;;;;3.97;1.93;;;;;;;;;;5052559;28;20543;-70
2021/03/29 07:58:47;;;;;;;4.30;1.70;;;;;;;;;;5046559;28;20480;-70
2021/03/29 08:01:16;;;;;;;3.47;2.10;;;;;;;;;;5048404;28;20491;-72
2021/03/29 08:03:46;;;;;;;5.97;2.23;;;;;;;;;;5046012;28;21031;-72
2021/03/29 08:06:30;;;;;;;3.10;1.83;;;;;;;;;;5048863;28;20545;-72
2021/03/29 08:08:56;;;;;;;3.93;2.20;;;;;;;;;;5043803;28;20488;-72
2021/03/29 08:11:22;;;;;;;10.10;2.53;;;;;;;;;;5048637;28;20479;-72
2021/03/29 08:13:53;;;;;;;3.33;2.00;;;;;;;;;;5051624;28;20451;-71
2021/03/29 08:16:25;;;;;;;3.90;2.10;;;;;;;;;;5049574;28;20451;-72
2021/03/29 08:19:14;;;;;;;8.67;1.90;;;;;;;;;;5051453;28;20437;-73
2021/03/29 08:21:52;;;;;;;6.40;1.63;;;;;;;;;;5050587;28;20436;-72
2021/03/29 08:24:29;;;;;;;6.47;2.00;;;;;;;;;;5039773;28;20453;-73
2021/03/29 08:26:56;;;;;;;3.40;2.10;;;;;;;;;;5037377;28;20522;-72
2021/03/29 08:29:27;;;;;;;8.37;1.97;;;;;;;;;;5047797;28;20463;-77
2021/03/29 08:32:13;;;;;;;3.93;2.40;;;;;;;;;;5038331;28;20424;-77
2021/03/29 08:34:48;;;;;;;7.80;2.20;;;;;;;;;;5052821;28;20813;-78
2021/03/29 08:37:16;;;;;;;4.67;2.20;;;;;;;;;;5052793;28;20412;-71
2021/03/29 08:39:44;;;;;;;11.97;2.60;;;;;;;;;;5049312;28;20425;-70
2021/03/29 08:42:10;;;;;;;4.20;2.13;;;;;;;;;;5038865;28;20473;-69
2021/03/29 08:44:37;;;;;;;4.90;1.87;;;;;;;;;;5050502;28;20453;-71
2021/03/29 08:47:07;;;;;;;4.57;2.23;;;;;;;;;;5049725;28;20494;-74
2021/03/29 08:49:33;;;;;;;3.60;2.27;;;;;;;;;;5043884;28;21295;-72
2021/03/29 08:51:59;;;;;;;4.20;2.40;;;;;;;;;;5056909;28;20427;-74
2021/03/29 08:54:26;;;;;;;3.43;2.03;;;;;;;;;;5046220;28;20490;-71
2021/03/29 08:57:00;;;;;;;2.97;1.93;;;;;;;;;;5043919;28;20494;-71
2021/03/29 08:59:27;;;;;;;8.70;1.73;;;;;;;;;;5054786;28;20436;-71
2021/03/29 09:01:53;;;;;;;5.65;2.20;;;;;;;;;;5047467;28;20450;-71
2021/03/29 09:04:20;;;;;;;3.00;2.00;;;;;;;;;;5050597;28;20685;-73
2021/03/29 09:06:46;;;;;;;5.97;2.10;;;;;;;;;;5051485;28;20507;-73
2021/03/29 09:09:13;;;;;;;4.57;1.90;;;;;;;;;;5047060;28;20505;-72
2021/03/29 09:11:42;;;;;;;3.80;1.90;;;;;;;;;;5046951;28;20950;-73
2021/03/29 09:14:12;;;;;;;5.87;2.00;;;;;;;;;;5046546;28;20539;-72
2021/03/29 09:16:39;;;;;;;3.40;1.70;;;;;;;;;;5041765;28;20492;-73
2021/03/29 09:19:16;;;;;;;5.43;2.47;;;;;;;;;;5043371;28;20834;-73
2021/03/29 09:21:42;;;;;;;5.90;1.77;;;;;;;;;;5042848;28;20453;-72
2021/03/29 09:24:34;;;;;;;8.33;1.80;;;;;;;;;;5047931;28;20462;-71
2021/03/29 09:27:04;;;;;;;5.00;2.13;;;;;;;;;;5046065;28;21666;-69
2021/03/29 09:29:38;;;;;;;8.70;2.40;;;;;;;;;;5046792;28;20437;-71
2021/03/29 09:32:08;;;;;;;7.07;2.60;;;;;;;;;;5042262;28;20422;-70
2021/03/29 09:34:36;;;;;;;4.10;2.23;;;;;;;;;;5047717;28;20441;-72
2021/03/29 09:37:03;;;;;;;3.00;2.17;;;;;;;;;;5049375;28;21171;-68
2021/03/29 09:39:30;;;;;;;6.03;2.42;;;;;;;;;;5047855;28;20505;-67
2021/03/29 09:41:57;;;;;;;4.10;2.30;;;;;;;;;;5044983;28;20167;-67
2021/03/29 09:44:25;;;;;;;4.00;2.40;;;;;;;;;;5043337;28;20446;-67
2021/03/29 09:46:55;;;;;;;8.00;2.07;;;;;;;;;;5049463;28;20430;-68
2021/03/29 09:49:21;;;;;;;5.03;2.00;;;;;;;;;;5043635;28;20433;-73
2021/03/29 09:51:49;;;;;;;5.30;2.30;;;;;;;;;;5051854;28;20430;-70
2021/03/29 09:54:24;;;;;;;3.47;1.73;;;;;;;;;;5050386;28;20252;-70
2021/03/29 09:56:50;;;;;;;4.83;2.33;;;;;;;;;;5051427;28;20453;-73
2021/03/29 09:59:26;;;;;;;5.80;2.30;;;;;;;;;;5046345;28;20426;-72
2021/03/29 10:01:52;;;;;;;4.60;2.37;;;;;;;;;;5046063;28;20410;-72
2021/03/29 10:04:19;;;;;;;4.00;2.67;;;;;;;;;;5049539;28;20445;-69
2021/03/29 10:06:55;;;;;;;5.97;2.40;;;;;;;;;;5050587;28;20541;-72
2021/03/29 10:09:32;;;;;;;4.53;2.17;;;;;;;;;;5049035;28;20522;-70
2021/03/29 10:11:59;;;;;;;4.17;1.90;;;;;;;;;;5051634;28;20442;-71
2021/03/29 10:14:32;;;;;;;3.87;2.13;;;;;;;;;;5042744;28;20438;-68
2021/03/29 10:16:58;;;;;;;4.30;2.35;;;;;;;;;;5050389;28;20428;-68
2021/03/29 10:19:30;;;;;;;3.87;2.40;;;;;;;;;;5048105;28;20262;-66
2021/03/29 10:22:19;;;;;;;3.53;1.77;;;;;;;;;;5046828;28;20425;-69
2021/03/29 10:25:00;;;;;;;5.00;2.10;;;;;;;;;;5040648;28;20546;-70
2021/03/29 10:27:37;;;;;;;4.47;1.93;;;;;;;;;;5046073;28;20494;-70
2021/03/29 10:30:04;;;;;;;4.50;2.60;;;;;;;;;;5042550;28;20521;-70
2021/03/29 10:32:30;;;;;;;5.70;2.10;;;;;;;;;;5044366;28;20416;-69
2021/03/29 10:34:56;;;;;;;3.70;1.83;;;;;;;;;;5043459;28;20203;-73
2021/03/29 10:37:22;;;;;;;3.00;2.00;;;;;;;;;;5037706;28;20513;-74
2021/03/29 10:39:49;;;;;;;3.47;2.00;;;;;;;;;;5042910;28;20849;-70
2021/03/29 10:42:16;;;;;;;3.90;2.03;;;;;;;;;;5045137;28;20417;-70
2021/03/29 10:44:42;;;;;;;4.60;2.17;;;;;;;;;;5048630;28;20988;-70
2021/03/29 10:47:08;;;;;;;5.78;2.10;;;;;;;;;;5040161;28;20419;-70
2021/03/29 10:49:34;;;;;;;5.70;1.83;;;;;;;;;;5051611;28;20667;-67
2021/03/29 10:52:00;;;;;;;3.57;2.23;;;;;;;;;;5046246;28;20422;-68
2021/03/29 10:54:26;;;;;;;5.90;2.57;;;;;;;;;;5042039;28;20473;-68
2021/03/29 10:56:52;;;;;;;5.10;1.97;;;;;;;;;;5046118;28;20465;-68
2021/03/29 10:59:18;;;;;;;3.70;2.10;;;;;;;;;;5045913;28;20407;-68
2021/03/29 11:01:44;;;;;;;4.20;2.10;;;;;;;;;;5047784;28;20441;-69
2021/03/29 11:04:10;;;;;;;3.73;1.90;;;;;;;;;;5050272;28;20442;-70
2021/03/29 11:06:37;;;;;;;6.38;2.30;;;;;;;;;;5042740;28;20835;-73
2021/03/29 11:09:03;;;;;;;6.50;2.57;;;;;;;;;;5047730;28;20202;-72
2021/03/29 11:11:29;;;;;;;5.20;1.90;;;;;;;;;;5045208;28;20421;-69
2021/03/29 11:13:55;;;;;;;4.60;2.23;;;;;;;;;;5046130;28;20449;-70
2021/03/29 11:16:23;;;;;;;5.10;2.37;;;;;;;;;;5042508;28;20452;-71
2021/03/29 11:18:49;;;;;;;4.65;1.95;;;;;;;;;;5043413;28;20318;-72
2021/03/29 11:21:15;;;;;;;5.20;2.50;;;;;;;;;;5050083;28;20163;-73
2021/03/29 11:23:41;;;;;;;6.00;2.50;;;;;;;;;;5039793;28;21150;-69
2021/03/29 11:26:07;;;;;;;6.20;2.33;;;;;;;;;;5043319;28;21053;-69
2021/03/29 11:28:34;;;;;;;6.27;1.83;;;;;;;;;;5047725;28;21334;-72
2021/03/29 11:31:00;;;;;;;5.23;1.93;;;;;;;;;;5047500;28;20422;-71
2021/03/29 11:33:26;;;;;;;5.50;2.60;;;;;;;;;;5043507;28;20440;-74
2021/03/29 11:35:52;;;;;;;4.17;2.30;;;;;;;;;;5047558;28;20198;-73
2021/03/29 11:38:18;;;;;;;3.97;2.07;;;;;;;;;;5048146;28;20903;-74
2021/03/29 11:40:44;;;;;;;8.33;2.50;;;;;;;;;;5048891;28;20501;-73
2021/03/29 11:43:10;;;;;;;6.43;2.30;;;;;;;;;;5045122;28;20927;-70
2021/03/29 11:45:36;;;;;;;3.67;1.77;;;;;;;;;;5046832;28;20207;-69
2021/03/29 11:48:04;;;;;;;7.00;2.07;;;;;;;;;;5048106;28;20472;-72
2021/03/29 11:50:30;;;;;;;10.03;2.40;;;;;;;;;;5040710;28;21042;-70
2021/03/29 11:52:56;;;;;;;4.13;1.73;;;;;;;;;;5044027;28;20460;-69
2021/03/29 11:55:22;;;;;;;5.57;2.40;;;;;;;;;;5047534;28;20515;-70
2021/03/29 11:57:49;;;;;;;3.80;1.53;;;;;;;;;;5046909;28;20426;-68
2021/03/29 12:00:27;;;;;;;3.60;2.10;;;;;;;;;;5045837;28;20417;-70
2021/03/29 12:03:14;;;;;;;3.73;2.23;;;;;;;;;;5046187;28;20870;-72
2021/03/29 12:05:48;;;;;;;4.57;2.30;;;;;;;;;;5043178;28;21004;-71
2021/03/29 12:13:25;;;;;;;5.10;1.87;;;;;;;;;;5042377;28;20425;-72
2021/03/29 12:15:53;;;;;;;4.13;1.90;;;;;;;;;;5042505;28;20453;-72
2021/03/29 12:18:32;;;;;;;7.43;2.90;;;;;;;;;;5049922;28;21848;-72
2021/03/29 12:20:59;;;;;;;6.10;2.10;;;;;;;;;;5046613;28;20409;-70
2021/03/29 12:23:26;;;;;;;4.00;1.77;;;;;;;;;;5044692;28;20917;-70
2021/03/29 12:25:52;;;;;;;4.53;1.90;;;;;;;;;;5046439;28;20434;-70
2021/03/29 12:28:20;;;;;;;4.00;2.33;;;;;;;;;;5052340;28;20649;-69
2021/03/29 12:30:46;;;;;;;3.50;1.87;;;;;;;;;;5045278;28;20925;-69
2021/03/29 12:33:12;;;;;;;3.50;1.93;;;;;;;;;;5043161;28;20429;-69
2021/03/29 12:35:39;;;;;;;5.37;2.17;;;;;;;;;;5050373;28;20873;-69
2021/03/29 12:38:05;;;;;;;3.83;2.57;;;;;;;;;;5052473;28;20471;-69
2021/03/29 12:40:33;;;;;;;3.50;2.13;;;;;;;;;;5054180;28;20464;-69
2021/03/29 12:45:27;;;;;;;4.80;1.90;;;;;;;;;;5046972;28;20942;-71
2021/03/29 12:47:57;;;;;;;3.00;2.03;;;;;;;;;;5044192;28;20437;-70
2021/03/29 12:50:24;;;;;;;4.53;2.20;;;;;;;;;;5054758;28;20484;-70
2021/03/29 12:52:50;;;;;;;3.03;1.90;;;;;;;;;;5053440;28;20517;-69
2021/03/29 12:55:17;;;;;;;2.80;1.80;;;;;;;;;;5048149;28;20458;-69
2021/03/29 12:57:44;;;;;;;4.90;1.90;;;;;;;;;;5058771;28;20436;-69
2021/03/29 13:00:11;;;;;;;4.20;2.27;;;;;;;;;;5048251;28;20857;-71
2021/03/29 13:02:38;;;;;;;2.87;1.80;;;;;;;;;;5041374;28;20445;-69
2021/03/29 13:05:06;;;;;;;4.00;2.00;;;;;;;;;;5043460;28;20460;-69
2021/03/29 13:07:39;;;;;;;4.73;2.10;;;;;;;;;;5044557;28;20485;-71
2021/03/29 13:12:38;;;;;;;3.03;1.90;;;;;;;;;;5049181;28;20449;-69
2021/03/29 13:15:12;;;;;;;2.73;1.97;;;;;;;;;;5050377;28;20442;-70
2021/03/29 13:17:42;;;;;;;3.97;1.97;;;;;;;;;;5059781;28;20484;-69
2021/03/29 13:20:13;;;;;;;3.13;1.87;;;;;;;;;;5054261;28;20410;-71
2021/03/29 13:22:40;;;;;;;6.33;2.13;;;;;;;;;;5043723;28;20433;-69
2021/03/29 13:25:06;;;;;;;4.80;2.47;;;;;;;;;;5045691;28;20458;-69
2021/03/29 13:27:33;;;;;;;5.97;2.00;;;;;;;;;;5051947;28;20767;-69
2021/03/29 13:30:04;;;;;;;4.50;1.67;;;;;;;;;;5046306;28;20452;-70
2021/03/29 13:32:31;;;;;;;3.57;2.33;;;;;;;;;;5040808;28;20428;-69
2021/03/29 13:34:57;;;;;;;4.57;2.20;;;;;;;;;;5049099;28;20453;-70
2021/03/29 13:37:24;;;;;;;6.20;2.43;;;;;;;;;;5048808;28;20425;-70
2021/03/29 13:39:54;;;;;;;4.93;2.17;;;;;;;;;;5047757;28;20783;-71
2021/03/29 13:42:21;;;;;;;3.20;1.90;;;;;;;;;;5044664;28;20417;-69
2021/03/29 13:44:47;;;;;;;2.60;1.80;;;;;;;;;;5043439;28;20441;-69
2021/03/29 13:47:14;;;;;;;3.43;2.47;;;;;;;;;;5048235;28;20418;-69
2021/03/29 13:49:40;;;;;;;3.20;1.90;;;;;;;;;;5049940;28;20520;-69
2021/03/29 13:52:08;;;;;;;4.50;2.10;;;;;;;;;;5045313;28;20413;-69
2021/03/29 13:54:35;;;;;;;8.90;2.40;;;;;;;;;;5041872;28;20458;-67
2021/03/29 13:57:05;;;;;;;3.60;2.20;;;;;;;;;;5047128;28;20511;-68
2021/03/29 13:59:31;;;;;;;3.20;1.63;;;;;;;;;;5047365;28;20846;-69
2021/03/29 14:01:58;;;;;;;2.50;1.90;;;;;;;;;;5052436;28;20953;-68
2021/03/29 14:04:24;;;;;;;5.30;2.00;;;;;;;;;;5042266;28;20462;-68
2021/03/29 14:06:50;;;;;;;4.03;1.60;;;;;;;;;;5041802;28;20434;-68
2021/03/29 14:09:18;;;;;;;4.77;2.20;;;;;;;;;;5041408;28;21149;-68
2021/03/29 14:11:46;;;;;;;10.27;1.67;;;;;;;;;;5048833;28;20433;-67
2021/03/29 14:14:12;;;;;;;6.10;1.93;;;;;;;;;;5045627;28;20530;-69
2021/03/29 14:16:38;;;;;;;6.33;1.80;;;;;;;;;;5048747;28;20505;-67
2021/03/29 14:19:06;;;;;;;6.37;2.43;;;;;;;;;;5049065;28;20437;-69
2021/03/29 14:21:33;;;;;;;3.53;1.80;;;;;;;;;;5047069;28;20938;-71
2021/03/29 14:23:59;;;;;;;6.50;2.33;;;;;;;;;;5040035;28;20537;-69
2021/03/29 14:26:25;;;;;;;2.90;1.70;;;;;;;;;;5048489;28;20436;-68
2021/03/29 14:28:51;;;;;;;4.60;1.90;;;;;;;;;;5050642;28;20811;-69
2021/03/29 14:31:18;;;;;;;4.17;1.57;;;;;;;;;;5049186;28;20702;-69
2021/03/29 14:33:44;;;;;;;6.13;2.10;;;;;;;;;;5046316;28;20950;-68
2021/03/29 14:46:39;;;;;;;3.17;1.80;;;;;;;;;;5047647;28;20487;-69
2021/03/29 14:49:05;;;;;;;7.53;2.13;;;;;;;;;;5047596;28;20426;-69
2021/03/29 14:51:31;;;;;;;5.70;2.63;;;;;;;;;;5042841;28;21086;-71
2021/03/29 14:53:58;;;;;;;5.37;2.27;;;;;;;;;;5041029;28;20489;-69
2021/03/29 14:56:25;;;;;;;5.83;2.73;;;;;;;;;;5047869;28;20469;-69
2021/03/29 14:58:51;;;;;;;7.63;2.20;;;;;;;;;;5042433;28;20787;-69
2021/03/29 15:01:21;;;;;;;3.40;2.50;;;;;;;;;;5049868;28;20491;-72
2021/03/29 15:03:52;;;;;;;2.93;1.97;;;;;;;;;;5037064;28;20458;-69
2021/03/29 15:06:27;;;;;;;12.77;2.30;;;;;;;;;;5044586;28;20423;-70
2021/03/29 15:08:54;;;;;;;7.40;1.50;;;;;;;;;;5049112;28;20426;-69
2021/03/29 15:11:20;;;;;;;3.00;1.87;;;;;;;;;;5048640;28;20497;-69